Time;durP1;ratioP1;P1;durP2;ratioP2;P2;SDS_P1;SDS_P2;PMS_P1;PMS_P2;Temp;Humidity;BMP_temperature;BMP_pressure;BME280_temperature;BME280_humidity;BME280_pressure;Samples;Min_cycle;Max_cycle;Signal;HPM_P1;HPM_P2
2024/01/25 00:00:42;;;;;;;10.00;3.00;;;;;;;9.03;72.02;97753.28;6204703;23;20025;-80
2024/01/25 00:03:12;;;;;;;18.42;4.40;;;;;;;9.03;72.27;97745.47;6205082;23;20033;-81
2024/01/25 00:05:40;;;;;;;21.05;4.68;;;;;;;9.04;72.00;97736.72;6206336;23;20024;-80
2024/01/25 00:08:07;;;;;;;14.07;3.53;;;;;;;9.03;71.49;97738.50;6236232;23;20032;-80
2024/01/25 00:10:35;;;;;;;20.88;4.40;;;;;;;9.02;72.02;97744.66;6235070;23;20031;-80
2024/01/25 00:13:03;;;;;;;14.68;3.53;;;;;;;9.03;71.84;97746.31;6234748;23;20594;-80
2024/01/25 00:15:31;;;;;;;17.15;3.72;;;;;;;9.04;71.81;97752.34;6234944;23;20070;-80
2024/01/25 00:17:58;;;;;;;19.20;4.43;;;;;;;9.05;71.70;97751.34;6235119;23;20072;-80
2024/01/25 00:20:27;;;;;;;18.83;3.83;;;;;;;9.05;71.50;97752.22;6233847;23;20021;-80
2024/01/25 00:22:55;;;;;;;16.23;3.75;;;;;;;9.08;71.56;97754.50;6233716;23;20028;-80
2024/01/25 00:25:23;;;;;;;18.95;3.88;;;;;;;9.10;71.71;97743.16;6233605;23;20021;-80
2024/01/25 00:27:50;;;;;;;16.80;3.85;;;;;;;9.12;71.79;97754.22;6234437;23;20028;-81
2024/01/25 00:30:18;;;;;;;17.88;3.50;;;;;;;9.11;71.31;97748.19;6234411;23;20017;-80
2024/01/25 00:32:46;;;;;;;15.02;3.78;;;;;;;9.11;71.16;97734.38;6233735;23;20021;-80
2024/01/25 00:35:15;;;;;;;19.35;4.82;;;;;;;9.11;70.91;97742.16;6234568;23;20076;-80
2024/01/25 00:37:45;;;;;;;15.40;4.13;;;;;;;9.11;70.70;97739.56;6235241;23;20020;-80
2024/01/25 00:40:13;;;;;;;20.02;4.03;;;;;;;9.11;70.74;97742.16;6234961;23;20021;-79
2024/01/25 00:42:43;;;;;;;15.20;3.63;;;;;;;9.11;70.34;97747.38;6242677;23;20012;-79
2024/01/25 00:45:12;;;;;;;13.95;3.75;;;;;;;9.12;70.44;97749.00;6242550;23;20013;-79
2024/01/25 00:47:40;;;;;;;28.42;4.57;;;;;;;9.12;70.78;97749.00;6242179;23;20024;-79
2024/01/25 00:50:08;;;;;;;16.08;4.03;;;;;;;9.14;71.53;97753.13;6244357;23;20072;-80
2024/01/25 00:52:37;;;;;;;22.05;4.32;;;;;;;9.15;71.25;97757.34;6244319;23;20038;-79
2024/01/25 00:55:07;;;;;;;14.25;3.80;;;;;;;9.15;71.39;97749.53;6244411;23;20015;-79
2024/01/25 00:57:36;;;;;;;13.73;3.38;;;;;;;9.16;71.86;97750.34;6244263;23;20312;-79
2024/01/25 01:00:05;;;;;;;18.90;4.20;;;;;;;9.16;71.32;97740.78;6243260;23;20059;-80
2024/01/25 01:02:37;;;;;;;15.90;3.50;;;;;;;9.15;70.73;97739.13;6238595;23;20024;-80
2024/01/25 01:05:05;;;;;;;19.38;4.20;;;;;;;9.14;70.84;97727.09;6237700;23;20016;-80
2024/01/25 01:07:34;;;;;;;20.77;4.63;;;;;;;9.14;70.56;97732.31;6236399;23;20020;-80
2024/01/25 01:10:01;;;;;;;14.85;3.42;;;;;;;9.15;70.64;97741.75;6237458;23;20116;-80
2024/01/25 01:12:31;;;;;;;19.55;3.42;;;;;;;9.15;71.33;97736.53;6238372;23;20020;-80
2024/01/25 01:14:58;;;;;;;20.83;3.97;;;;;;;9.15;71.19;97735.72;6239932;23;20016;-79
2024/01/25 01:17:27;;;;;;;17.42;3.97;;;;;;;9.14;70.96;97734.91;6243308;23;20020;-80
2024/01/25 01:19:54;;;;;;;17.13;3.25;;;;;;;9.16;71.30;97739.94;6243966;23;20004;-80
2024/01/25 01:22:22;;;;;;;17.80;3.72;;;;;;;9.14;71.08;97736.66;6244124;23;20025;-80
2024/01/25 01:24:50;;;;;;;17.10;3.78;;;;;;;9.13;70.74;97735.03;6242097;23;20096;-80
2024/01/25 01:27:17;;;;;;;14.48;3.58;;;;;;;9.12;70.67;97736.00;6238077;23;20020;-80
2024/01/25 01:29:46;;;;;;;20.88;3.38;;;;;;;9.14;71.12;97747.06;6237303;23;20028;-80
2024/01/25 01:32:14;;;;;;;21.67;4.43;;;;;;;9.14;70.77;97741.88;6235597;23;20021;-80
2024/01/25 01:34:42;;;;;;;16.25;3.55;;;;;;;9.14;70.56;97741.88;6234825;23;20048;-80
2024/01/25 01:37:09;;;;;;;20.10;4.40;;;;;;;9.14;70.94;97736.66;6236984;23;20020;-80
2024/01/25 01:39:37;;;;;;;22.98;4.95;;;;;;;9.15;70.85;97748.72;6235728;23;20476;-80
2024/01/25 01:42:05;;;;;;;17.58;4.03;;;;;;;9.14;70.78;97742.72;6235386;23;20020;-80
2024/01/25 01:44:33;;;;;;;16.45;3.63;;;;;;;9.15;70.82;97748.72;6236475;23;20028;-80
2024/01/25 01:47:02;;;;;;;26.48;4.28;;;;;;;9.16;71.07;97750.34;6235450;23;20040;-79
2024/01/25 01:49:29;;;;;;;20.77;4.50;;;;;;;9.17;70.78;97754.63;6234473;23;20077;-80
2024/01/25 01:51:58;;;;;;;17.02;3.78;;;;;;;9.17;70.85;97767.63;6235867;23;20020;-80
2024/01/25 01:54:26;;;;;;;17.33;3.88;;;;;;;9.17;70.93;97760.63;6235484;23;20001;-80
2024/01/25 01:56:54;;;;;;;15.43;3.78;;;;;;;9.17;71.07;97758.03;6236306;23;20418;-80
2024/01/25 01:59:25;;;;;;;15.90;3.90;;;;;;;9.17;71.53;97765.03;6237203;23;20016;-80
2024/01/25 02:01:53;;;;;;;20.98;4.20;;;;;;;9.18;71.17;97761.44;6236461;23;20035;-80
2024/01/25 02:04:22;;;;;;;13.82;3.55;;;;;;;9.17;71.73;97760.63;6239838;23;20023;-79
2024/01/25 02:06:50;;;;;;;19.88;4.07;;;;;;;9.16;71.28;97759.00;6242772;23;20087;-79
2024/01/25 02:09:18;;;;;;;19.50;4.10;;;;;;;9.16;71.30;97768.56;6242230;23;20039;-79
2024/01/25 02:11:45;;;;;;;19.23;3.58;;;;;;;9.16;71.21;97760.78;6243115;23;20008;-80
2024/01/25 02:14:13;;;;;;;20.75;3.90;;;;;;;9.15;71.04;97769.56;6240566;23;20028;-80
2024/01/25 02:16:45;;;;;;;18.15;4.50;;;;;;;9.16;71.15;97765.97;6238519;23;20016;-80
2024/01/25 02:19:13;;;;;;;15.07;3.67;;;;;;;9.18;71.43;97754.47;6237561;23;20020;-79
2024/01/25 02:21:42;;;;;;;17.48;3.38;;;;;;;9.19;71.44;97752.69;6237263;23;20025;-79
2024/01/25 02:24:11;;;;;;;25.30;4.95;;;;;;;9.19;71.46;97760.50;6237089;23;20007;-80
2024/01/25 02:26:39;;;;;;;14.35;3.67;;;;;;;9.20;71.18;97756.91;6236694;23;20024;-80
2024/01/25 02:29:08;;;;;;;22.20;4.38;;;;;;;9.20;70.96;97762.94;6236149;23;20021;-80
2024/01/25 02:31:35;;;;;;;14.45;4.18;;;;;;;9.22;70.81;97760.19;6235572;23;20486;-80
2024/01/25 02:34:03;;;;;;;17.23;4.40;;;;;;;9.22;70.57;97757.59;6236236;23;20024;-80
2024/01/25 02:36:31;;;;;;;20.88;4.00;;;;;;;9.22;70.56;97765.41;6235583;23;20019;-80
2024/01/25 02:38:59;;;;;;;18.38;4.18;;;;;;;9.22;70.83;97766.22;6234251;23;20020;-80
2024/01/25 02:41:30;;;;;;;16.30;4.35;;;;;;;9.22;70.89;97762.81;6236571;23;20024;-80
2024/01/25 02:43:57;;;;;;;24.70;4.68;;;;;;;9.22;70.56;97757.59;6235926;23;20020;-80
2024/01/25 02:46:25;;;;;;;19.83;4.07;;;;;;;9.21;70.33;97758.56;6236510;23;20021;-80
2024/01/25 02:48:53;;;;;;;21.25;5.45;;;;;;;9.19;70.74;97753.50;6235915;23;20055;-80
2024/01/25 02:51:21;;;;;;;21.00;4.78;;;;;;;9.19;70.45;97750.91;6236319;23;20310;-80
2024/01/25 02:53:48;;;;;;;15.05;4.22;;;;;;;9.20;70.42;97746.50;6236123;23;20024;-80
2024/01/25 02:56:17;;;;;;;18.08;3.08;;;;;;;9.20;70.07;97746.50;6236131;23;20021;-80
2024/01/25 02:58:46;;;;;;;21.85;3.80;;;;;;;9.21;70.73;97748.16;6235698;23;20012;-80
2024/01/25 03:01:14;;;;;;;22.75;3.85;;;;;;;9.22;70.17;97744.56;6235680;23;20025;-80
2024/01/25 03:03:42;;;;;;;14.68;3.95;;;;;;;9.22;70.09;97741.97;6234798;23;20101;-80
2024/01/25 03:06:09;;;;;;;18.60;4.80;;;;;;;9.22;70.21;97745.38;6235880;23;20020;-79
2024/01/25 03:08:37;;;;;;;19.00;4.43;;;;;;;9.23;70.51;97756.66;6235074;23;20048;-80
2024/01/25 03:11:05;;;;;;;21.60;4.18;;;;;;;9.24;70.59;97747.84;6235737;23;20029;-80
2024/01/25 03:13:34;;;;;;;16.08;3.13;;;;;;;9.25;70.86;97752.13;6234755;23;20024;-79
2024/01/25 03:16:03;;;;;;;16.50;3.83;;;;;;;9.24;70.45;97758.28;6235281;23;20048;-79
2024/01/25 03:18:31;;;;;;;10.65;3.42;;;;;;;9.23;70.15;97757.47;6236471;23;20031;-80
2024/01/25 03:20:58;;;;;;;17.73;4.15;;;;;;;9.22;69.79;97760.19;6235762;23;20040;-80
2024/01/25 03:23:26;;;;;;;13.57;3.53;;;;;;;9.19;69.30;97766.53;6235035;23;20025;-80
2024/01/25 03:25:54;;;;;;;17.48;3.95;;;;;;;9.17;69.46;97767.63;6235509;23;20027;-80
2024/01/25 03:28:22;;;;;;;18.63;4.80;;;;;;;9.17;69.48;97765.84;6235778;23;20028;-80
2024/01/25 03:30:50;;;;;;;19.77;4.50;;;;;;;9.18;69.42;97761.44;6235336;23;20079;-80
2024/01/25 03:33:19;;;;;;;19.15;4.30;;;;;;;9.19;70.09;97771.72;6233704;23;20051;-79
2024/01/25 03:35:46;;;;;;;14.52;3.80;;;;;;;9.20;69.58;97772.53;6234526;23;20043;-80
2024/01/25 03:38:14;;;;;;;12.38;3.40;;;;;;;9.20;69.34;97762.13;6233913;23;20032;-80
2024/01/25 03:40:42;;;;;;;16.73;3.25;;;;;;;9.18;69.88;97758.84;6235198;23;20027;-80
2024/01/25 03:43:12;;;;;;;8.85;3.28;;;;;;;9.20;70.00;97762.13;6235296;23;20462;-80
2024/01/25 03:45:49;;;;;;;19.60;4.82;;;;;;;9.20;71.04;97769.94;6235427;23;20015;-80
2024/01/25 03:48:17;;;;;;;17.92;4.18;;;;;;;9.19;70.16;97768.31;6235757;23;20024;-80
2024/01/25 03:50:46;;;;;;;20.55;4.72;;;;;;;9.15;70.16;97770.38;6235478;23;20027;-79
2024/01/25 03:53:14;;;;;;;16.42;3.55;;;;;;;9.15;69.51;97778.19;6235139;23;20266;-80
2024/01/25 04:06:16;;;;;;;15.70;3.42;;;;;;;9.02;68.96;97786.31;6219190;23;20083;-81
2024/01/25 04:09:04;;;;;;;15.05;4.07;;;;;;;8.97;67.98;97783.31;6220108;23;20021;-80
2024/01/25 04:11:53;;;;;;;18.73;4.22;;;;;;;8.94;67.99;97778.38;6158066;23;20032;-80
2024/01/25 04:17:49;;;;;;;;;;;;;;;8.91;68.62;97773.47;6243993;23;20055;-81
2024/01/25 04:21:04;;;;;;;15.93;3.60;;;;;;;8.87;68.38;97761.72;6167399;23;19938;-80
2024/01/25 04:27:57;;;;;;;16.70;3.28;;;;;;;8.81;69.29;97772.69;6224831;23;20031;-81
2024/01/25 04:37:18;;;;;;;13.40;3.15;;;;;;;8.72;68.60;97786.53;6199827;23;20099;-81
2024/01/25 04:46:54;;;;;;;18.73;3.80;;;;;;;8.69;69.11;97800.66;6221508;23;20325;-80
2024/01/25 05:29:42;;;;;;;15.60;4.55;;;;;;;8.42;69.92;97801.38;6191927;23;20066;-82
2024/01/25 05:36:42;;;;;;;16.30;4.72;;;;;;;8.40;70.46;97813.69;6220905;23;20024;-81
2024/01/25 05:43:46;;;;;;;15.65;3.88;;;;;;;8.38;69.92;97828.59;6221546;23;20477;-81
2024/01/25 06:00:12;;;;;;;16.33;4.47;;;;;;;8.36;70.60;97851.31;6212072;23;20027;-82
2024/01/25 06:02:40;;;;;;;22.00;4.93;;;;;;;8.35;69.70;97854.84;6220541;23;20024;-82
2024/01/25 06:05:08;;;;;;;15.75;3.40;;;;;;;8.35;69.70;97858.28;6220298;23;20467;-82
2024/01/25 06:11:14;;;;;;;;;;;;;;;8.40;70.28;97863.06;6221778;23;20257;-82
2024/01/25 06:18:41;;;;;;;14.20;3.63;;;;;;;8.38;69.12;97852.81;6193128;23;20023;-81
2024/01/25 06:51:21;;;;;;;20.63;3.95;;;;;;;8.19;69.96;97903.00;6206463;22;20063;-82
2024/01/25 07:00:38;;;;;;;15.35;3.92;;;;;;;8.10;70.87;97897.78;6253274;23;20074;-80
2024/01/25 07:07:40;;;;;;;16.00;3.42;;;;;;;7.94;70.67;97913.91;6151681;22;20074;-80
2024/01/25 08:58:28;;;;;;;11.97;4.57;;;;;;;8.91;71.38;97976.44;6226944;22;20007;-81
2024/01/25 09:01:00;;;;;;;18.10;5.47;;;;;;;9.01;70.09;97986.88;6244585;22;20000;-82
2024/01/25 09:21:39;;;;;;;14.03;4.37;;;;;;;9.66;67.18;97981.81;6209851;22;21131;-77
2024/01/25 09:24:07;;;;;;;16.75;3.80;;;;;;;9.72;66.77;97985.66;6186651;23;20282;-78
2024/01/25 09:26:34;;;;;;;13.40;4.30;;;;;;;9.79;67.87;97991.91;6186947;23;20021;-78
2024/01/25 09:29:02;;;;;;;24.55;5.15;;;;;;;9.88;67.81;97996.28;6187303;23;20029;-77
2024/01/25 09:31:30;;;;;;;18.40;4.32;;;;;;;9.98;66.44;98006.69;6185614;23;20028;-78
2024/01/25 09:33:58;;;;;;;14.82;4.40;;;;;;;10.07;68.41;98006.63;6186097;23;20021;-78
2024/01/25 09:36:26;;;;;;;19.58;5.30;;;;;;;10.13;67.60;98007.84;6185734;23;20017;-79
2024/01/25 09:38:55;;;;;;;19.88;5.00;;;;;;;10.17;65.88;98011.81;6186037;23;20028;-77
2024/01/25 09:41:23;;;;;;;19.33;4.40;;;;;;;10.25;65.32;98013.69;6185674;23;20520;-78
2024/01/25 09:43:51;;;;;;;21.20;4.72;;;;;;;10.30;65.35;98016.72;6185678;23;20467;-77
2024/01/25 09:46:19;;;;;;;19.85;5.10;;;;;;;10.33;64.93;98020.84;6185877;23;20017;-78
2024/01/25 09:48:47;;;;;;;17.63;5.07;;;;;;;10.34;65.38;98028.50;6186519;23;20017;-78
2024/01/25 09:51:16;;;;;;;16.40;4.60;;;;;;;10.37;66.02;98032.63;6185731;23;20017;-77
2024/01/25 09:53:46;;;;;;;17.92;5.18;;;;;;;10.40;64.62;98037.53;6186134;23;20049;-77
2024/01/25 09:56:19;;;;;;;19.25;5.20;;;;;;;10.40;63.73;98042.75;6186347;23;20025;-77
2024/01/25 09:58:47;;;;;;;16.00;4.70;;;;;;;10.43;66.77;98037.22;6185765;23;20025;-78
2024/01/25 10:01:16;;;;;;;16.85;4.90;;;;;;;10.49;67.08;98031.44;6186018;23;20092;-77
2024/01/25 10:03:44;;;;;;;17.15;5.10;;;;;;;10.49;65.36;98026.22;6185879;23;20025;-77
2024/01/25 10:06:13;;;;;;;14.77;4.30;;;;;;;10.44;65.00;98025.84;6185995;23;20024;-79
2024/01/25 10:08:42;;;;;;;18.95;5.55;;;;;;;10.34;64.67;98028.50;6186254;23;20013;-78
2024/01/25 10:11:11;;;;;;;19.55;5.57;;;;;;;10.24;64.27;98033.72;6202724;23;20005;-78
2024/01/25 10:13:43;;;;;;;13.35;4.68;;;;;;;10.13;66.55;98036.53;6206589;23;20052;-78
2024/01/25 10:16:12;;;;;;;18.10;4.35;;;;;;;10.17;66.50;98037.88;6208053;23;20044;-79
2024/01/25 10:18:42;;;;;;;20.15;4.72;;;;;;;10.20;64.67;98028.94;6206248;23;20485;-78
2024/01/25 10:21:10;;;;;;;22.23;4.60;;;;;;;10.26;66.14;98023.97;6189300;23;20032;-78
2024/01/25 10:23:39;;;;;;;22.20;4.90;;;;;;;10.39;64.25;98020.25;6190784;23;20052;-77
2024/01/25 10:26:09;;;;;;;18.83;5.28;;;;;;;10.67;64.46;98032.31;6187163;23;20531;-78
2024/01/25 10:28:37;;;;;;;15.70;4.93;;;;;;;11.08;64.80;98024.84;6186349;23;20399;-79
2024/01/25 10:31:08;;;;;;;16.10;3.83;;;;;;;11.48;61.41;98020.13;6186497;23;20092;-78
2024/01/25 10:33:40;;;;;;;16.13;4.22;;;;;;;11.92;60.95;98020.94;6187117;23;20533;-78
2024/01/25 10:36:09;;;;;;;16.60;4.63;;;;;;;12.38;62.11;98011.97;6186384;23;20455;-78
2024/01/25 10:38:38;;;;;;;15.32;4.35;;;;;;;12.80;59.23;98016.34;6185917;23;20025;-78
2024/01/25 10:41:07;;;;;;;13.95;4.38;;;;;;;13.17;58.71;98002.78;6185595;23;20474;-79
2024/01/25 10:43:36;;;;;;;14.32;5.53;;;;;;;13.55;56.18;98009.16;6185813;23;20336;-78
2024/01/25 10:46:05;;;;;;;15.10;4.85;;;;;;;13.86;54.54;98000.59;6185960;23;20017;-78
2024/01/25 10:48:38;;;;;;;18.50;5.03;;;;;;;14.10;52.61;98006.75;6186386;23;20044;-78
2024/01/25 10:51:08;;;;;;;16.80;4.72;;;;;;;14.38;54.87;98000.06;6185743;23;20024;-78
2024/01/25 10:53:38;;;;;;;13.05;4.05;;;;;;;14.63;52.53;98003.44;6186023;23;20047;-78
2024/01/25 10:56:07;;;;;;;15.07;5.28;;;;;;;14.92;52.39;97993.25;6185870;23;20072;-78
2024/01/25 10:58:35;;;;;;;15.23;4.28;;;;;;;15.17;52.63;97994.69;6186153;23;20052;-79
2024/01/25 11:01:10;;;;;;;16.45;4.03;;;;;;;15.36;48.50;97987.31;6186776;23;20014;-78
2024/01/25 11:03:48;;;;;;;21.10;4.80;;;;;;;15.57;48.70;97992.72;6187259;23;20021;-79
2024/01/25 11:56:06;;;;;;;14.50;4.15;;;;;;;17.39;43.17;97926.06;6205771;22;20031;-74
2024/01/25 12:03:59;;;;;;;11.15;3.60;;;;;;;17.44;44.03;97923.66;6229863;22;20039;-79
2024/01/25 12:30:31;;;;;;;12.30;3.45;;;;;;;15.39;44.55;97910.69;6213230;22;20016;-80
2024/01/25 12:59:27;;;;;;;17.88;4.75;;;;;;;13.76;46.95;97887.22;6171632;23;20490;-82
2024/01/25 13:42:26;;;;;;;17.48;2.63;;;;;;;12.87;48.27;97836.63;6197723;22;20079;-80
2024/01/25 14:00:11;;;;;;;11.48;2.70;;;;;;;13.14;49.04;97807.44;6074211;23;20105;-80
2024/01/25 14:55:55;;;;;;;8.70;2.28;;;;;;;12.72;50.64;97777.06;6217175;22;20028;-81
2024/01/25 14:58:23;;;;;;;14.10;2.92;;;;;;;12.72;52.99;97784.13;6216851;23;20025;-81
2024/01/25 15:00:52;;;;;;;13.57;2.42;;;;;;;12.69;51.31;97793.13;6216261;23;20099;-81
2024/01/25 15:07:01;;;;;;;10.02;2.65;;;;;;;12.67;51.67;97789.84;6211171;23;20087;-81
2024/01/25 15:09:38;;;;;;;9.15;2.72;;;;;;;12.61;50.37;97782.66;6215901;23;20093;-81
2024/01/25 15:12:20;;;;;;;6.93;2.30;;;;;;;12.54;53.12;97779.88;6189503;23;20023;-81
2024/01/25 15:14:49;;;;;;;8.95;2.42;;;;;;;12.51;53.00;97784.66;6215800;23;20095;-79
2024/01/25 15:17:19;;;;;;;11.13;3.35;;;;;;;12.49;51.39;97776.16;6215851;23;20025;-81
2024/01/25 15:19:47;;;;;;;7.72;2.35;;;;;;;12.45;52.22;97774.84;6215982;23;20023;-79
2024/01/25 15:35:34;;;;;;;11.25;3.45;;;;;;;12.12;51.67;97780.88;5077230;28;20372;-80
2024/01/25 15:38:05;;;;;;;14.57;3.72;;;;;;;12.07;55.49;97771.88;5037133;28;20556;-78
2024/01/25 15:40:34;;;;;;;8.65;3.03;;;;;;;12.03;54.37;97765.34;5063204;28;20090;-79
2024/01/25 15:43:03;;;;;;;10.05;2.72;;;;;;;11.96;55.75;97770.41;5054831;28;20049;-80
2024/01/25 15:45:31;;;;;;;14.77;2.63;;;;;;;11.94;56.04;97781.03;5052090;28;20045;-79
2024/01/25 15:48:06;;;;;;;12.95;2.88;;;;;;;11.90;54.21;97776.28;5050710;28;20055;-81
2024/01/25 15:50:37;;;;;;;12.77;3.00;;;;;;;11.88;57.23;97771.19;5054290;28;20120;-80
2024/01/25 15:53:12;;;;;;;12.77;2.78;;;;;;;11.81;58.85;97772.81;5054955;28;20061;-80
2024/01/25 15:55:42;;;;;;;18.85;3.65;;;;;;;11.75;54.53;97773.44;5051119;28;20139;-80
2024/01/25 15:58:10;;;;;;;17.60;4.47;;;;;;;11.66;54.88;97774.41;5056625;28;20126;-79
2024/01/25 16:00:38;;;;;;;10.60;4.07;;;;;;;11.61;56.58;97777.50;5049511;28;20409;-79
2024/01/25 16:03:06;;;;;;;11.80;3.92;;;;;;;11.54;54.90;97772.09;5048883;28;20502;-79
2024/01/25 16:05:34;;;;;;;12.50;3.78;;;;;;;11.48;54.58;97772.72;5049554;28;20088;-78
2024/01/25 16:08:03;;;;;;;15.25;3.78;;;;;;;11.41;55.38;97769.06;5049508;28;20099;-77
2024/01/25 16:10:31;;;;;;;16.17;4.35;;;;;;;11.37;57.85;97777.41;5045851;28;20088;-80
2024/01/25 16:12:58;;;;;;;11.57;3.55;;;;;;;11.32;59.37;97768.22;5069753;28;20059;-80
2024/01/25 16:15:38;;;;;;;13.75;3.78;;;;;;;11.29;58.40;97772.97;5068498;28;20045;-81
2024/01/25 16:18:06;;;;;;;11.25;3.15;;;;;;;11.23;59.87;97770.97;5068158;28;20079;-73
2024/01/25 16:20:34;;;;;;;11.77;3.10;;;;;;;11.13;59.96;97769.31;5066468;28;20136;-73
2024/01/25 16:23:09;;;;;;;14.15;3.47;;;;;;;11.06;60.84;97765.69;5064366;28;20689;-80
2024/01/25 16:25:40;;;;;;;7.90;3.00;;;;;;;11.04;61.33;97762.41;5051666;28;20453;-81
2024/01/25 16:28:12;;;;;;;8.05;3.78;;;;;;;11.03;61.28;97768.59;5051148;28;20053;-81
2024/01/25 16:31:01;;;;;;;15.27;3.65;;;;;;;10.96;60.02;97767.59;5049785;28;20124;-81
2024/01/25 16:33:33;;;;;;;14.82;4.25;;;;;;;10.85;58.27;97763.47;5050422;28;20049;-81
2024/01/25 16:36:08;;;;;;;21.73;3.92;;;;;;;10.75;57.65;97764.53;5040079;28;20061;-81
2024/01/25 16:38:42;;;;;;;15.02;4.38;;;;;;;10.65;59.25;97769.88;5037771;28;20049;-81
2024/01/25 16:41:16;;;;;;;17.05;4.35;;;;;;;10.59;57.78;97760.84;5037889;28;20054;-81
2024/01/25 16:43:49;;;;;;;11.25;3.83;;;;;;;10.52;57.75;97752.00;5051690;28;20148;-80
2024/01/25 16:46:19;;;;;;;19.30;4.40;;;;;;;10.49;57.46;97749.69;5059978;28;20121;-80
2024/01/25 16:48:50;;;;;;;12.02;3.97;;;;;;;10.43;57.55;97755.50;5060187;28;20275;-81
2024/01/25 16:51:23;;;;;;;35.50;9.68;;;;;;;10.37;57.49;97750.94;5045792;28;20533;-81
2024/01/25 16:53:55;;;;;;;22.75;8.55;;;;;;;10.28;57.83;97757.84;5037450;28;20159;-80
2024/01/25 16:56:27;;;;;;;35.47;12.05;;;;;;;10.17;57.91;97761.50;5036902;28;20057;-80
2024/01/25 16:58:57;;;;;;;160.73;58.20;;;;;;;10.07;57.96;97765.97;5036608;28;20539;-81
2024/01/25 17:01:26;;;;;;;180.45;69.28;;;;;;;9.96;58.54;97774.81;5016512;28;20046;-81
2024/01/25 17:03:55;;;;;;;171.15;65.88;;;;;;;9.89;58.84;97779.00;5017124;28;20069;-80
2024/01/25 17:06:26;;;;;;;111.45;43.47;;;;;;;9.83;58.97;97779.59;5017131;28;20418;-81
2024/01/25 17:08:57;;;;;;;61.60;24.27;;;;;;;9.74;59.29;97783.09;5017514;28;20507;-81
2024/01/25 17:11:28;;;;;;;28.40;8.35;;;;;;;9.64;59.10;97780.53;5016915;28;20575;-81
2024/01/25 17:13:58;;;;;;;25.58;6.70;;;;;;;9.51;59.10;97774.84;5016966;28;20057;-81
2024/01/25 17:16:27;;;;;;;19.73;5.13;;;;;;;9.39;59.48;97779.44;5016543;28;20058;-81
2024/01/25 17:18:58;;;;;;;18.75;6.00;;;;;;;9.32;59.85;97778.41;5016215;28;20061;-81
2024/01/25 17:21:28;;;;;;;19.75;6.22;;;;;;;9.23;59.83;97777.47;5016575;28;20579;-81
2024/01/25 17:23:58;;;;;;;17.20;5.25;;;;;;;9.14;60.03;97778.31;5016155;28;20053;-81
2024/01/25 17:26:27;;;;;;;19.88;4.75;;;;;;;9.06;60.16;97777.25;5016415;28;20053;-81
2024/01/25 17:28:56;;;;;;;14.57;4.53;;;;;;;8.98;60.29;97776.31;5026622;28;20065;-80
2024/01/25 17:31:25;;;;;;;24.83;6.72;;;;;;;8.93;60.65;97773.34;5037699;28;20050;-80
2024/01/25 17:33:53;;;;;;;42.22;16.40;;;;;;;8.90;60.70;97777.06;5037506;28;20141;-81
2024/01/25 17:36:24;;;;;;;40.05;18.13;;;;;;;8.87;60.95;97778.13;5036968;28;20081;-81
2024/01/25 17:38:52;;;;;;;41.15;17.38;;;;;;;8.83;61.34;97784.59;5021241;28;20045;-81
2024/01/25 17:41:22;;;;;;;40.75;14.00;;;;;;;8.80;61.35;97787.47;5016669;28;20565;-81
2024/01/25 17:43:51;;;;;;;25.98;10.32;;;;;;;8.77;61.31;97781.75;5016003;28;20061;-81
2024/01/25 17:46:20;;;;;;;26.75;8.90;;;;;;;8.72;61.38;97773.53;5015754;28;20046;-81
2024/01/25 17:48:48;;;;;;;26.25;10.70;;;;;;;8.64;61.54;97777.66;5015436;28;20522;-80
2024/01/25 17:51:17;;;;;;;21.42;6.82;;;;;;;8.56;61.81;97787.13;5019666;28;20066;-81
2024/01/25 17:53:45;;;;;;;19.58;6.05;;;;;;;8.48;62.30;97793.00;5015212;28;20503;-81
2024/01/25 17:56:14;;;;;;;15.55;5.13;;;;;;;8.46;62.59;97789.72;5016128;28;20129;-81
2024/01/25 17:58:43;;;;;;;15.10;4.25;;;;;;;8.48;62.75;97793.00;5015851;28;20077;-80
2024/01/25 18:01:12;;;;;;;13.63;4.95;;;;;;;8.47;62.63;97783.59;5015873;28;20435;-80
2024/01/25 18:03:40;;;;;;;11.32;5.30;;;;;;;8.45;62.64;97782.91;5015691;28;20050;-81
2024/01/25 18:06:08;;;;;;;13.35;4.90;;;;;;;8.50;65.51;97779.88;5015358;28;20076;-81
2024/01/25 18:08:36;;;;;;;18.58;4.57;;;;;;;8.55;64.42;97788.06;5015573;28;20108;-81
2024/01/25 18:11:05;;;;;;;19.33;6.13;;;;;;;8.54;63.89;97779.47;5036561;28;20058;-81
2024/01/25 18:13:33;;;;;;;21.95;6.88;;;;;;;8.53;63.35;97780.44;5036547;28;20049;-80
2024/01/25 18:16:03;;;;;;;35.45;14.65;;;;;;;8.52;63.85;97776.16;5037039;28;20495;-81
2024/01/25 18:18:32;;;;;;;30.73;14.32;;;;;;;8.51;63.40;97774.53;5020699;28;20507;-81
2024/01/25 18:21:00;;;;;;;41.50;18.70;;;;;;;8.49;63.50;97773.88;5017848;28;20428;-81
2024/01/25 18:23:28;;;;;;;44.60;20.98;;;;;;;8.48;63.45;97780.00;5015768;28;20104;-81
2024/01/25 18:25:58;;;;;;;37.63;16.13;;;;;;;8.44;63.45;97784.69;5016357;28;20054;-81
2024/01/25 18:28:26;;;;;;;21.63;11.57;;;;;;;8.44;63.59;97784.69;5016340;28;20057;-81
2024/01/25 18:30:56;;;;;;;33.47;13.55;;;;;;;8.48;63.92;97784.41;5015945;28;20056;-80
2024/01/25 18:33:27;;;;;;;24.38;9.30;;;;;;;8.54;64.17;97776.03;5015449;28;20049;-81
2024/01/25 18:35:55;;;;;;;24.23;9.32;;;;;;;8.58;63.67;97782.59;5015657;28;20058;-81
2024/01/25 18:38:24;;;;;;;18.25;8.63;;;;;;;8.58;64.11;97777.41;5015312;28;20050;-81
2024/01/25 18:40:52;;;;;;;23.38;11.18;;;;;;;8.57;63.71;97778.34;5015058;28;20611;-81
2024/01/25 18:43:21;;;;;;;20.67;10.32;;;;;;;8.53;63.88;97780.44;5014941;28;20084;-81
2024/01/25 18:45:49;;;;;;;21.77;10.70;;;;;;;8.52;63.68;97789.19;5015223;28;20045;-81
2024/01/25 18:48:18;;;;;;;22.50;10.57;;;;;;;8.53;65.92;97785.63;5015269;28;20054;-81
2024/01/25 18:50:48;;;;;;;22.95;10.27;;;;;;;8.61;66.72;97793.53;5014961;28;20073;-81
2024/01/25 18:53:16;;;;;;;23.27;10.18;;;;;;;8.60;65.06;97786.72;5014897;28;20056;-80
2024/01/25 18:55:45;;;;;;;16.75;7.88;;;;;;;8.59;66.22;97790.28;5014801;28;20057;-80
2024/01/25 18:58:14;;;;;;;24.50;9.40;;;;;;;8.65;65.74;97789.69;5016633;28;20112;-80
2024/01/25 19:00:43;;;;;;;21.30;8.85;;;;;;;8.66;64.89;97788.75;5015497;28;20128;-80
2024/01/25 19:03:12;;;;;;;23.10;8.93;;;;;;;8.64;64.74;97785.47;5015065;28;20594;-80
2024/01/25 19:05:41;;;;;;;31.23;9.27;;;;;;;8.63;64.89;97789.00;5014737;28;20061;-82
2024/01/25 19:08:15;;;;;;;19.25;8.00;;;;;;;8.62;65.34;97784.78;5015311;28;20054;-80
2024/01/25 19:10:44;;;;;;;45.38;18.52;;;;;;;8.62;65.53;97783.97;5015075;28;20049;-80
2024/01/25 19:13:12;;;;;;;54.47;20.13;;;;;;;8.61;65.69;97790.13;5014696;28;20045;-81
2024/01/25 19:15:41;;;;;;;51.85;19.00;;;;;;;8.57;65.83;97792.19;5014543;28;20518;-80
2024/01/25 19:18:09;;;;;;;58.22;21.92;;;;;;;8.56;66.37;97790.53;5014484;28;20072;-81
2024/01/25 19:20:40;;;;;;;57.22;23.13;;;;;;;8.54;66.68;97791.66;5015009;28;20058;-81
2024/01/25 19:23:08;;;;;;;40.70;15.93;;;;;;;8.53;66.64;97790.03;5014531;28;20056;-81
2024/01/25 19:25:38;;;;;;;29.00;12.48;;;;;;;8.53;67.30;97790.03;5014857;28;20042;-81
2024/01/25 19:28:06;;;;;;;24.65;11.23;;;;;;;8.54;67.43;97789.03;5015170;28;20076;-81
2024/01/25 19:30:35;;;;;;;19.40;7.85;;;;;;;8.54;67.83;97779.47;5014645;28;20076;-80
2024/01/25 19:33:04;;;;;;;14.52;6.85;;;;;;;8.52;67.67;97789.19;5015613;28;20581;-81
2024/01/25 19:35:33;;;;;;;16.35;6.78;;;;;;;8.53;69.29;97785.63;5016091;28;20046;-81
2024/01/25 19:38:01;;;;;;;14.15;7.35;;;;;;;8.60;71.01;97791.09;5015770;28;20045;-81
2024/01/25 19:40:30;;;;;;;17.77;7.18;;;;;;;8.66;71.50;97787.94;5014397;28;20060;-81
2024/01/25 19:43:00;;;;;;;17.90;6.72;;;;;;;8.69;71.18;97781.63;5014394;28;20046;-81
2024/01/25 19:45:29;;;;;;;20.63;9.00;;;;;;;8.66;70.43;97783.56;5014986;28;20060;-81
2024/01/25 19:47:57;;;;;;;14.07;7.57;;;;;;;8.65;72.32;97783.69;5014729;28;20050;-81
2024/01/25 19:50:26;;;;;;;22.95;8.98;;;;;;;8.67;71.76;97779.16;5014743;28;20073;-81
2024/01/25 19:52:55;;;;;;;17.90;7.88;;;;;;;8.68;71.80;97775.63;5014738;28;20108;-81
2024/01/25 19:55:24;;;;;;;23.23;8.68;;;;;;;8.71;71.76;97771.91;5014023;28;20527;-81
2024/01/25 19:57:53;;;;;;;13.75;7.18;;;;;;;8.73;73.17;97775.19;5014004;28;20049;-81
2024/01/25 20:00:24;;;;;;;17.10;7.15;;;;;;;8.77;73.86;97787.78;5014284;28;20060;-80
2024/01/25 20:02:54;;;;;;;14.50;7.00;;;;;;;8.82;73.86;97785.56;5014123;28;20045;-83
2024/01/25 20:05:23;;;;;;;15.85;6.60;;;;;;;8.88;74.63;97778.97;5014374;28;20054;-82